createdAt,value
2022-08-08T00:00:56.013Z,97.69
2022-08-08T00:00:56.241Z,97.89
2022-08-08T00:02:03.899Z,98.03
2022-08-08T00:02:33.449Z,97.94
2022-08-08T00:03:32.423Z,97.94
2022-08-08T00:04:30.215Z,98.14
2022-08-08T00:05:44.183Z,98.14
2022-08-08T00:06:35.022Z,98.24
2022-08-08T00:07:30.074Z,97.83
2022-08-08T00:08:30.073Z,98.14
2022-08-08T00:09:33.119Z,98.03
2022-08-08T00:10:33.042Z,97.73
2022-08-08T00:11:47.033Z,97.83
2022-08-08T00:12:31.337Z,97.83
2022-08-08T00:14:15.151Z,98.14
2022-08-08T00:14:58.739Z,97.94
2022-08-08T00:15:55.824Z,98.09
2022-08-08T00:16:30.997Z,97.89
2022-08-08T00:17:47.879Z,97.79
2022-08-08T00:18:30.988Z,97.69
2022-08-08T00:19:29.949Z,97.89
2022-08-08T00:20:29.953Z,97.79
2022-08-08T00:21:29.930Z,97.99
2022-08-08T00:22:30.312Z,97.58
2022-08-08T00:23:42.911Z,97.69
2022-08-08T00:24:30.280Z,97.69
2022-08-08T00:25:44.902Z,97.79
2022-08-08T00:26:30.127Z,97.99
2022-08-08T00:27:34.893Z,97.99
2022-08-08T00:28:35.035Z,97.99
2022-08-08T00:29:44.800Z,98.09
2022-08-08T00:30:30.831Z,98.39
2022-08-08T00:32:16.359Z,98.34
2022-08-08T00:32:35.171Z,97.83
2022-08-08T00:34:17.273Z,98.03
2022-08-08T00:34:30.821Z,98.03
2022-08-08T00:35:29.790Z,97.94
2022-08-08T00:36:35.187Z,98.24
2022-08-08T00:37:47.898Z,97.94
2022-08-08T00:38:32.414Z,98.34
2022-08-08T00:41:06.708Z,98.44
2022-08-08T00:41:08.009Z,98.54
2022-08-08T00:41:54.548Z,98.34
2022-08-08T00:42:33.097Z,98.49
2022-08-08T00:43:41.073Z,98.49
2022-08-08T00:44:29.696Z,98.49
2022-08-08T00:45:29.687Z,98.79
2022-08-08T00:46:32.233Z,98.90
2022-08-08T00:47:36.907Z,98.79
2022-08-08T00:48:34.071Z,98.79
2022-08-08T00:49:32.209Z,98.90
2022-08-08T00:50:29.676Z,98.99
2022-08-08T00:51:38.330Z,99.10
2022-08-08T00:52:39.161Z,99.10
2022-08-08T00:53:29.622Z,99.10
2022-08-08T00:54:30.630Z,99.04
2022-08-08T00:55:52.780Z,99.14
2022-08-08T00:56:30.588Z,99.35
2022-08-08T00:57:34.506Z,99.44
2022-08-08T00:58:30.816Z,99.55
2022-08-08T00:59:43.126Z,99.99
2022-08-08T01:00:32.164Z,99.99
2022-08-08T01:01:38.227Z,99.99
2022-08-08T01:03:16.085Z,99.99
2022-08-08T01:03:59.311Z,99.99
2022-08-08T01:04:30.557Z,99.99
2022-08-08T01:05:58.483Z,99.99
2022-08-08T01:06:30.469Z,99.99
2022-08-08T01:07:34.478Z,99.99
2022-08-08T01:08:30.444Z,99.99
2022-08-08T01:09:36.818Z,99.99
2022-08-08T01:10:32.413Z,99.99
2022-08-08T01:11:29.435Z,99.99
2022-08-08T01:12:30.298Z,99.99
2022-08-08T01:13:43.377Z,99.99
2022-08-08T01:14:54.690Z,99.99
2022-08-08T01:15:43.663Z,99.99
2022-08-08T01:16:30.375Z,99.44
2022-08-08T01:17:52.169Z,99.49
2022-08-08T01:18:52.972Z,99.69
2022-08-08T01:19:52.515Z,99.60
2022-08-08T01:20:30.315Z,99.69
2022-08-08T01:22:01.702Z,99.80
2022-08-08T01:22:35.082Z,99.80
2022-08-08T01:24:06.377Z,99.60
2022-08-08T01:24:30.303Z,99.49
2022-08-08T01:25:40.123Z,98.99
2022-08-08T01:26:29.274Z,98.99
2022-08-08T01:27:33.097Z,98.68
2022-08-08T01:28:29.518Z,98.79
2022-08-08T01:29:35.608Z,98.79
2022-08-08T01:30:31.309Z,98.99
2022-08-08T01:32:06.417Z,99.19
2022-08-08T01:32:30.542Z,99.19
2022-08-08T01:33:33.832Z,99.19
2022-08-08T01:34:29.307Z,99.13
2022-08-08T01:35:30.474Z,99.33
2022-08-08T01:36:29.152Z,99.24
2022-08-08T01:37:57.398Z,99.13
2022-08-08T01:38:30.143Z,99.13
2022-08-08T01:39:34.638Z,98.83
2022-08-08T01:40:32.110Z,98.73
2022-08-08T01:41:34.427Z,98.83
2022-08-08T01:42:35.639Z,98.83
2022-08-08T01:43:34.787Z,98.83
2022-08-08T01:44:29.082Z,98.83
2022-08-08T01:45:29.075Z,98.73
2022-08-08T01:46:29.057Z,98.73
2022-08-08T01:48:14.472Z,98.73
2022-08-08T01:48:31.321Z,98.73
2022-08-08T01:49:37.407Z,98.63
2022-08-08T01:50:33.991Z,98.32
2022-08-08T01:51:29.784Z,98.22
2022-08-08T01:53:29.203Z,98.22
2022-08-08T01:55:16.669Z,98.22
2022-08-08T01:55:26.924Z,98.22
2022-08-08T01:56:29.408Z,98.12
2022-08-08T01:56:34.518Z,97.92
2022-08-08T01:57:33.803Z,97.86
2022-08-08T01:58:38.606Z,97.86
2022-08-08T01:59:38.149Z,98.07
2022-08-08T02:00:29.898Z,98.68
2022-08-08T02:01:54.830Z,98.88
2022-08-08T02:02:34.498Z,98.97
2022-08-08T02:03:56.090Z,98.88
2022-08-08T02:04:29.861Z,98.88
2022-08-08T02:05:33.821Z,98.97
2022-08-08T02:06:33.019Z,99.08
2022-08-08T02:07:41.824Z,98.88
2022-08-08T02:08:34.086Z,98.68
2022-08-08T02:10:01.592Z,98.57
2022-08-08T02:10:37.244Z,98.47
2022-08-08T02:11:59.882Z,98.47
2022-08-08T02:12:30.115Z,98.47
2022-08-08T02:13:54.033Z,98.57
2022-08-08T02:14:29.772Z,98.57
2022-08-08T02:15:28.742Z,98.57
2022-08-08T02:16:28.732Z,98.57
2022-08-08T02:17:36.574Z,98.57
2022-08-08T02:18:28.722Z,98.57
2022-08-08T02:19:57.442Z,98.37
2022-08-08T02:21:01.590Z,98.27
2022-08-08T02:21:29.693Z,98.27
2022-08-08T02:22:31.622Z,98.07
2022-08-08T02:23:32.114Z,97.91
2022-08-08T02:24:28.668Z,97.80
2022-08-08T02:25:43.640Z,97.91
2022-08-08T02:26:29.670Z,98.21
2022-08-08T02:27:28.624Z,98.11
2022-08-08T02:28:35.296Z,98.21
2022-08-08T02:29:41.594Z,98.32
2022-08-08T02:30:29.639Z,98.41
2022-08-08T02:31:58.987Z,98.41
2022-08-08T02:32:29.565Z,98.41
2022-08-08T02:34:00.458Z,98.52
2022-08-08T02:34:33.312Z,98.82
2022-08-08T02:35:28.531Z,98.86
2022-08-08T02:36:29.528Z,98.72
2022-08-08T02:37:52.632Z,98.77
2022-08-08T02:38:30.250Z,98.97
2022-08-08T02:39:41.963Z,99.17
2022-08-08T02:40:31.538Z,99.27
2022-08-08T02:42:04.333Z,99.38
2022-08-08T02:42:38.092Z,99.58
2022-08-08T02:44:38.151Z,99.38
2022-08-08T02:44:43.211Z,99.17
2022-08-08T02:45:29.427Z,99.07
2022-08-08T02:46:29.419Z,98.97
2022-08-08T02:47:28.412Z,99.07
2022-08-08T02:48:28.409Z,99.07
2022-08-08T02:49:47.947Z,98.97
2022-08-08T02:50:29.384Z,98.77
2022-08-08T02:51:30.461Z,98.56
2022-08-08T02:52:42.653Z,98.56
2022-08-08T02:53:28.351Z,98.56
2022-08-08T02:54:28.343Z,98.46
2022-08-08T02:55:37.131Z,98.46
2022-08-08T02:56:28.334Z,98.46
2022-08-08T02:57:29.376Z,98.46
2022-08-08T02:58:29.307Z,98.36
2022-08-08T02:59:37.228Z,98.46
2022-08-08T03:00:31.592Z,98.36
2022-08-08T03:01:32.558Z,98.36
2022-08-08T03:02:30.346Z,98.56
2022-08-08T03:05:00.656Z,98.46
2022-08-08T03:05:04.855Z,98.46
2022-08-08T03:05:32.892Z,98.46
2022-08-08T03:06:34.889Z,98.56
2022-08-08T03:07:41.584Z,98.66
2022-08-08T03:08:28.197Z,98.56
2022-08-08T03:09:28.707Z,98.46
2022-08-08T03:10:33.658Z,98.36
2022-08-08T03:11:48.131Z,98.16
2022-08-08T03:12:36.726Z,97.89
2022-08-08T03:15:54.193Z,97.80
2022-08-08T03:15:57.990Z,98.91
2022-08-08T03:16:03.870Z,98.81
2022-08-08T03:16:35.834Z,99.63
2022-08-08T03:17:39.617Z,99.93
2022-08-08T03:18:31.091Z,99.99
2022-08-08T03:19:28.101Z,99.99
2022-08-08T03:20:28.098Z,99.73
2022-08-08T03:21:54.485Z,99.63
2022-08-08T03:22:38.047Z,99.42
2022-08-08T03:23:30.271Z,99.32
2022-08-08T03:24:29.161Z,99.22
2022-08-08T03:25:34.129Z,99.02
2022-08-08T03:26:30.545Z,98.71
2022-08-08T03:27:28.999Z,98.50
2022-08-08T03:28:27.991Z,98.50
2022-08-08T03:29:56.536Z,98.30
2022-08-08T03:30:28.996Z,98.30
2022-08-08T03:31:27.958Z,98.71
2022-08-08T03:32:30.652Z,98.81
2022-08-08T03:33:55.430Z,98.81
2022-08-08T03:34:28.953Z,98.91
2022-08-08T03:35:30.177Z,99.11
2022-08-08T03:36:30.418Z,99.02
2022-08-08T03:38:00.031Z,98.71
2022-08-08T03:38:57.942Z,98.55
2022-08-08T03:39:28.859Z,98.45
2022-08-08T03:40:32.114Z,98.55
2022-08-08T03:42:12.710Z,98.66
2022-08-08T03:42:30.111Z,98.66
2022-08-08T03:43:38.221Z,98.86
2022-08-08T03:44:27.766Z,98.81
2022-08-08T03:46:06.680Z,98.66
2022-08-08T03:46:32.515Z,98.66
2022-08-08T03:47:39.427Z,98.75
2022-08-08T03:49:09.149Z,98.66
2022-08-08T03:49:58.607Z,98.75
2022-08-08T03:50:28.718Z,98.55
2022-08-08T03:51:50.265Z,98.35
2022-08-08T03:52:28.960Z,98.35
2022-08-08T03:53:42.443Z,98.35
2022-08-08T03:54:41.759Z,98.45
2022-08-08T03:55:56.448Z,98.45
2022-08-08T03:56:31.753Z,98.35
2022-08-08T03:58:34.736Z,98.25
2022-08-08T03:58:34.999Z,98.35
2022-08-08T03:59:27.617Z,98.55
2022-08-08T04:00:27.592Z,98.45
2022-08-08T04:01:30.562Z,98.45
2022-08-08T04:02:32.781Z,98.35
2022-08-08T04:03:57.787Z,98.66
2022-08-08T04:04:31.161Z,99.16
2022-08-08T04:05:28.892Z,99.27
2022-08-08T04:06:29.301Z,99.16
2022-08-08T04:07:27.533Z,99.57
2022-08-08T04:08:33.300Z,99.62
2022-08-08T04:09:27.504Z,99.88
2022-08-08T04:10:32.336Z,99.99
2022-08-08T04:11:27.506Z,99.98
2022-08-08T04:12:28.597Z,99.92
2022-08-08T04:13:27.474Z,99.67
2022-08-08T04:14:33.805Z,99.57
2022-08-08T04:15:38.433Z,99.37
2022-08-08T04:16:40.111Z,99.06
2022-08-08T04:17:57.786Z,98.96
2022-08-08T04:18:28.412Z,99.06
2022-08-08T04:19:28.397Z,98.86
2022-08-08T04:20:28.618Z,98.80
2022-08-08T04:21:27.379Z,98.91
2022-08-08T04:22:29.831Z,99.11
2022-08-08T04:24:00.416Z,99.31
2022-08-08T04:24:31.233Z,99.52
2022-08-08T04:25:32.971Z,99.52
2022-08-08T04:26:27.338Z,99.62
2022-08-08T04:28:01.862Z,99.62
2022-08-08T04:28:40.534Z,99.62
2022-08-08T04:29:27.378Z,99.72
2022-08-08T04:30:27.290Z,99.82
2022-08-08T04:31:56.722Z,99.82
2022-08-08T04:32:40.867Z,99.72
2022-08-08T04:33:27.251Z,99.72
2022-08-08T04:34:43.016Z,99.92
2022-08-08T04:35:29.441Z,99.92
2022-08-08T04:36:27.240Z,99.72
2022-08-08T04:37:31.924Z,99.62
2022-08-08T04:38:27.393Z,99.62
2022-08-08T04:40:03.905Z,99.62
2022-08-08T04:40:31.208Z,99.72
2022-08-08T04:41:27.238Z,99.92
2022-08-08T04:42:27.221Z,99.99
2022-08-08T04:43:31.821Z,99.92
2022-08-08T04:44:28.145Z,99.72
2022-08-08T04:45:27.138Z,99.99
2022-08-08T04:46:27.121Z,99.99
2022-08-08T04:47:27.105Z,99.99
2022-08-08T04:48:27.101Z,99.99
2022-08-08T04:49:28.944Z,99.99
2022-08-08T04:50:34.284Z,99.99
2022-08-08T04:51:48.343Z,99.99
2022-08-08T04:52:33.736Z,99.99
2022-08-08T04:54:27.603Z,99.99
2022-08-08T04:54:41.786Z,99.99
2022-08-08T04:55:47.132Z,99.99
2022-08-08T04:56:28.028Z,99.99
2022-08-08T04:57:27.008Z,99.99
2022-08-08T04:58:26.990Z,99.99
2022-08-08T04:59:30.089Z,99.99
2022-08-08T05:00:27.981Z,99.99
2022-08-08T05:01:27.021Z,99.99
2022-08-08T05:02:28.656Z,99.99
2022-08-08T05:04:07.492Z,99.99
2022-08-08T05:04:27.953Z,99.99
2022-08-08T05:05:44.187Z,99.99
2022-08-08T05:06:29.285Z,99.99
2022-08-08T05:07:26.910Z,99.99
2022-08-08T05:08:28.792Z,99.99
2022-08-08T05:09:26.901Z,99.99
2022-08-08T05:10:29.864Z,99.99
2022-08-08T05:11:26.872Z,99.99
2022-08-08T05:12:29.536Z,99.99
2022-08-08T05:13:26.842Z,99.99
2022-08-08T05:14:26.860Z,99.99
2022-08-08T05:16:47.930Z,99.99
2022-08-08T05:16:53.747Z,99.99
2022-08-08T05:17:27.792Z,99.99
2022-08-08T05:18:27.791Z,99.99
2022-08-08T05:20:11.423Z,99.99
2022-08-08T05:20:27.764Z,99.99
2022-08-08T05:21:26.754Z,99.99
2022-08-08T05:22:28.000Z,99.99
2022-08-08T05:23:26.737Z,99.99
2022-08-08T05:24:27.749Z,99.99
2022-08-08T05:25:41.332Z,99.99
2022-08-08T05:26:27.526Z,99.99
2022-08-08T05:27:26.698Z,99.99
2022-08-08T05:28:41.498Z,99.99
2022-08-08T05:29:29.113Z,99.99
2022-08-08T05:30:28.075Z,99.99
2022-08-08T05:32:04.690Z,99.99
2022-08-08T05:32:29.998Z,99.99
2022-08-08T05:33:26.639Z,99.99
2022-08-08T05:34:27.621Z,99.99
2022-08-08T05:35:26.619Z,99.99
2022-08-08T05:36:28.192Z,99.99
2022-08-08T05:37:28.342Z,99.99
2022-08-08T05:38:31.778Z,99.99
2022-08-08T05:39:28.606Z,99.99
2022-08-08T05:40:29.593Z,99.99
2022-08-08T05:41:27.982Z,99.99
2022-08-08T05:42:26.578Z,99.99
2022-08-08T05:43:39.561Z,99.99
2022-08-08T05:44:31.254Z,99.99
2022-08-08T05:45:41.375Z,99.99
2022-08-08T05:46:27.501Z,99.99
2022-08-08T05:47:26.495Z,99.99
2022-08-08T05:48:28.725Z,99.99
2022-08-08T05:49:26.686Z,99.99
2022-08-08T05:50:26.461Z,99.99
2022-08-08T05:51:26.449Z,99.99
2022-08-08T05:52:35.544Z,99.99
2022-08-08T05:53:56.290Z,99.99
2022-08-08T05:54:50.337Z,99.99
2022-08-08T05:55:30.402Z,99.99
2022-08-08T05:56:27.415Z,99.99
2022-08-08T05:58:05.761Z,99.99
2022-08-08T05:58:31.626Z,99.99
2022-08-08T05:59:59.464Z,99.99
2022-08-08T06:00:27.500Z,99.99
2022-08-08T06:01:51.127Z,99.99
2022-08-08T06:02:27.326Z,99.99
2022-08-08T06:03:29.486Z,99.99
2022-08-08T06:04:26.611Z,99.99
2022-08-08T06:05:35.367Z,99.99
2022-08-08T06:06:32.636Z,99.99
2022-08-08T06:07:27.823Z,99.99
2022-08-08T06:08:28.266Z,99.99
2022-08-08T06:09:58.331Z,99.99
2022-08-08T06:10:30.237Z,99.99
2022-08-08T06:11:28.231Z,99.99
2022-08-08T06:12:30.872Z,99.99
2022-08-08T06:13:26.224Z,99.99
2022-08-08T06:14:27.201Z,99.99
2022-08-08T06:15:31.455Z,99.99
2022-08-08T06:16:30.356Z,99.99
2022-08-08T06:17:31.970Z,99.99
2022-08-08T06:18:27.603Z,99.99
2022-08-08T06:19:27.423Z,99.99
2022-08-08T06:20:26.264Z,99.40
2022-08-08T06:21:33.336Z,98.95
2022-08-08T06:22:35.411Z,98.34
2022-08-08T06:23:39.729Z,97.73
2022-08-08T06:24:30.408Z,97.28
2022-08-08T06:26:36.233Z,97.28
2022-08-08T06:26:38.998Z,97.28
2022-08-08T06:27:27.164Z,96.67
2022-08-08T06:28:29.081Z,96.12
2022-08-08T06:29:56.904Z,95.72
2022-08-08T06:30:28.475Z,95.51
2022-08-08T06:31:32.214Z,95.47
2022-08-08T06:32:27.026Z,95.17
2022-08-08T06:33:36.630Z,94.06
2022-08-08T06:34:28.381Z,93.85
2022-08-08T06:36:07.094Z,93.95
2022-08-08T06:36:27.002Z,94.11
2022-08-08T06:37:25.965Z,94.31
2022-08-08T06:38:28.706Z,94.01
2022-08-08T06:39:25.995Z,93.81
2022-08-08T06:40:29.209Z,94.11
2022-08-08T06:41:25.958Z,93.40
2022-08-08T06:42:26.336Z,93.40
2022-08-08T06:43:30.552Z,93.10
2022-08-08T06:44:25.891Z,92.90
2022-08-08T06:45:25.876Z,92.55
2022-08-08T06:46:25.872Z,92.65
2022-08-08T06:47:31.608Z,93.05
2022-08-08T06:48:27.402Z,92.45
2022-08-08T06:49:55.031Z,92.55
2022-08-08T06:50:32.359Z,92.35
2022-08-08T06:51:45.837Z,92.76
2022-08-08T06:52:27.873Z,92.65
2022-08-08T06:53:25.801Z,92.50
2022-08-08T06:54:25.789Z,91.66
2022-08-08T06:55:28.780Z,89.75
2022-08-08T06:56:26.288Z,88.10
2022-08-08T06:57:25.789Z,86.75
2022-08-08T06:58:30.924Z,85.90
2022-08-08T06:59:25.733Z,85.36
2022-08-08T07:00:30.335Z,84.41
2022-08-08T07:02:16.697Z,83.57
2022-08-08T07:02:29.386Z,83.53
2022-08-08T07:03:52.459Z,83.03
2022-08-08T07:04:41.375Z,82.48
2022-08-08T07:05:30.125Z,81.18
2022-08-08T07:06:26.931Z,81.34
2022-08-08T07:07:25.655Z,80.10
2022-08-08T07:08:26.735Z,78.85
2022-08-08T07:09:27.072Z,77.91
2022-08-08T07:10:29.635Z,77.87
2022-08-08T07:11:25.629Z,77.74
2022-08-08T07:12:30.488Z,75.54
2022-08-08T07:13:25.661Z,75.30
2022-08-08T07:14:25.587Z,75.16
2022-08-08T07:15:41.046Z,74.37
2022-08-08T07:16:28.934Z,72.33
2022-08-08T07:17:40.262Z,72.63
2022-08-08T07:18:35.467Z,72.79
2022-08-08T07:19:25.568Z,71.49
2022-08-08T07:20:27.995Z,71.16
2022-08-08T07:21:25.511Z,70.62
2022-08-08T07:22:25.503Z,70.79
2022-08-08T07:23:25.495Z,69.49
2022-08-08T07:24:26.943Z,68.76
2022-08-08T07:25:31.828Z,68.13
2022-08-08T07:26:32.894Z,67.73
2022-08-08T07:27:35.272Z,67.60
2022-08-08T07:28:31.547Z,65.61
2022-08-08T07:29:59.031Z,66.57
2022-08-08T07:30:26.604Z,66.87
2022-08-08T07:31:25.422Z,66.07
2022-08-08T07:32:25.684Z,65.34
2022-08-08T07:33:25.395Z,65.05
2022-08-08T07:34:31.425Z,64.94
2022-08-08T07:35:25.378Z,65.61
2022-08-08T07:36:25.392Z,64.28
2022-08-08T07:37:25.346Z,64.18
2022-08-08T07:38:26.341Z,62.29
2022-08-08T07:39:29.379Z,62.46
2022-08-08T07:40:32.507Z,62.96
2022-08-08T07:41:25.460Z,62.73
2022-08-08T07:42:32.940Z,62.13
2022-08-08T07:43:37.291Z,62.34
2022-08-08T07:44:40.586Z,61.67
2022-08-08T07:45:26.390Z,61.69
2022-08-08T07:46:30.627Z,63.19
2022-08-08T07:47:38.905Z,61.67
2022-08-08T07:48:25.244Z,61.57
2022-08-08T07:49:25.218Z,60.94
2022-08-08T07:50:25.356Z,61.34
2022-08-08T07:51:45.174Z,60.52
2022-08-08T07:52:27.062Z,59.32
2022-08-08T07:54:01.593Z,60.35
2022-08-08T07:54:27.433Z,60.94
2022-08-08T07:55:28.723Z,62.56
2022-08-08T07:56:36.076Z,62.26
2022-08-08T07:57:25.684Z,60.84
2022-08-08T07:58:26.123Z,60.31
2022-08-08T07:59:25.112Z,60.42
2022-08-08T08:00:26.102Z,60.58
2022-08-08T08:01:26.934Z,60.06
2022-08-08T08:02:35.000Z,60.06
2022-08-08T08:03:28.283Z,60.23
2022-08-08T08:04:26.073Z,58.54
2022-08-08T08:05:26.329Z,59.63
2022-08-08T08:06:27.144Z,58.87
2022-08-08T08:07:31.660Z,59.09
2022-08-08T08:08:25.023Z,59.79
2022-08-08T08:09:26.457Z,59.96
2022-08-08T08:10:30.700Z,58.77
2022-08-08T08:11:34.004Z,58.15
2022-08-08T08:12:35.300Z,58.04
2022-08-08T08:13:42.656Z,58.25
2022-08-08T08:14:25.971Z,59.41
2022-08-08T08:15:24.959Z,59.41
2022-08-08T08:16:24.942Z,56.43
2022-08-08T08:17:25.018Z,57.20
2022-08-08T08:18:31.796Z,57.00
2022-08-08T08:19:25.995Z,56.70
2022-08-08T08:20:30.223Z,57.03
2022-08-08T08:21:43.995Z,57.85
2022-08-08T08:22:33.587Z,58.64
2022-08-08T08:23:27.707Z,58.25
2022-08-08T08:24:30.579Z,59.41
2022-08-08T08:25:40.995Z,58.02
2022-08-08T08:26:27.696Z,56.30
2022-08-08T08:27:24.822Z,56.87
2022-08-08T08:28:24.816Z,56.74
2022-08-08T08:29:27.768Z,56.82
2022-08-08T08:30:26.464Z,56.72
2022-08-08T08:31:24.782Z,55.73
2022-08-08T08:32:35.986Z,55.13
2022-08-08T08:33:24.799Z,55.33
2022-08-08T08:34:24.753Z,56.62
2022-08-08T08:35:30.060Z,56.65
2022-08-08T08:36:25.730Z,56.05
2022-08-08T08:37:29.761Z,56.48
2022-08-08T08:38:25.911Z,56.77
2022-08-08T08:39:24.742Z,56.57
2022-08-08T08:40:28.753Z,56.08
2022-08-08T08:41:24.964Z,55.98
2022-08-08T08:42:31.777Z,56.57
2022-08-08T08:43:28.909Z,55.21
2022-08-08T08:44:24.641Z,56.63
2022-08-08T08:45:26.408Z,57.40
2022-08-08T08:46:26.002Z,58.29
2022-08-08T08:47:24.628Z,57.37
2022-08-08T08:48:25.607Z,56.32
2022-08-08T08:49:25.649Z,55.16
2022-08-08T08:50:33.632Z,54.96
2022-08-08T08:51:24.582Z,55.58
2022-08-08T08:52:24.552Z,54.69
2022-08-08T08:53:54.743Z,55.85
2022-08-08T08:54:25.714Z,57.31
2022-08-08T08:55:28.569Z,55.93
2022-08-08T08:56:25.534Z,53.45
2022-08-08T08:57:24.509Z,54.54
2022-08-08T08:58:24.498Z,55.24
2022-08-08T08:59:59.034Z,55.13
2022-08-08T09:00:25.479Z,52.96
2022-08-08T09:01:25.499Z,53.48
2022-08-08T09:02:24.468Z,53.28
2022-08-08T09:03:24.442Z,54.27
2022-08-08T09:04:31.845Z,54.77
2022-08-08T09:05:49.206Z,52.09
2022-08-08T09:06:28.723Z,53.08
2022-08-08T09:07:24.433Z,53.97
2022-08-08T09:08:25.389Z,53.08
2022-08-08T09:09:35.246Z,53.55
2022-08-08T09:10:29.092Z,52.19
2022-08-08T09:11:24.372Z,53.11
2022-08-08T09:12:24.361Z,53.03
2022-08-08T09:13:24.354Z,53.13
2022-08-08T09:14:25.898Z,53.33
2022-08-08T09:15:40.915Z,54.20
2022-08-08T09:16:24.312Z,54.57
2022-08-08T09:17:41.237Z,54.24
2022-08-08T09:18:25.341Z,53.85
2022-08-08T09:21:59.391Z,53.25
2022-08-08T09:22:02.132Z,54.64
2022-08-08T09:22:04.774Z,54.14
2022-08-08T09:22:26.608Z,53.75
2022-08-08T09:23:25.759Z,52.14
2022-08-08T09:24:24.261Z,52.76
2022-08-08T09:25:36.084Z,54.64
2022-08-08T09:26:25.217Z,54.52
2022-08-08T09:27:55.985Z,52.49
2022-08-08T09:28:35.626Z,52.59
2022-08-08T09:29:24.469Z,53.08
2022-08-08T09:30:24.172Z,53.48
2022-08-08T09:31:24.163Z,52.56
2022-08-08T09:32:31.041Z,52.76
2022-08-08T09:34:16.037Z,51.75
2022-08-08T09:34:32.303Z,53.45
2022-08-08T09:35:31.743Z,53.16
2022-08-08T09:36:24.109Z,53.16
2022-08-08T09:37:57.105Z,51.28
2022-08-08T09:38:25.090Z,53.06
2022-08-08T09:39:24.273Z,52.26
2022-08-08T09:40:44.089Z,53.13
2022-08-08T09:41:25.083Z,53.92
2022-08-08T09:42:26.027Z,53.30
2022-08-08T09:44:05.808Z,52.71
2022-08-08T09:44:29.709Z,51.99
2022-08-08T09:46:01.992Z,49.82
2022-08-08T09:46:25.538Z,51.57
2022-08-08T09:47:25.495Z,51.20
2022-08-08T09:48:29.026Z,51.79
2022-08-08T09:49:42.221Z,52.19
2022-08-08T09:50:24.956Z,51.13
2022-08-08T09:51:25.759Z,52.78
2022-08-08T09:52:53.888Z,53.47
2022-08-08T09:53:53.327Z,50.53
2022-08-08T09:54:37.065Z,51.23
2022-08-08T09:55:51.543Z,55.35
2022-08-08T09:56:27.753Z,52.98
2022-08-08T09:57:25.154Z,55.13
2022-08-08T09:58:27.685Z,52.86
2022-08-08T10:00:49.739Z,51.67
2022-08-08T10:02:01.945Z,50.38
2022-08-08T10:02:24.988Z,49.52
2022-08-08T10:03:23.837Z,52.69
2022-08-08T10:04:42.378Z,50.88
2022-08-08T10:05:25.456Z,51.18
2022-08-08T10:06:29.321Z,50.71
2022-08-08T10:07:23.852Z,49.44
2022-08-08T10:08:23.784Z,50.26
2022-08-08T10:09:23.770Z,52.96
2022-08-08T10:10:30.440Z,53.35
2022-08-08T10:12:28.215Z,52.93
2022-08-08T10:12:31.111Z,50.56
2022-08-08T10:13:32.661Z,50.95
2022-08-08T10:14:28.443Z,51.84
2022-08-08T10:15:24.172Z,53.23
2022-08-08T10:16:23.785Z,51.25
2022-08-08T10:17:38.647Z,51.45
2022-08-08T10:18:25.766Z,51.23
2022-08-08T10:19:23.660Z,52.31
2022-08-08T10:20:27.878Z,52.22
2022-08-08T10:21:25.921Z,50.53
2022-08-08T10:22:24.637Z,50.73
2022-08-08T10:23:41.950Z,50.04
2022-08-08T10:24:28.733Z,49.77
2022-08-08T10:25:26.593Z,49.74
2022-08-08T10:26:29.755Z,52.61
2022-08-08T10:27:24.584Z,50.53
2022-08-08T10:28:25.724Z,50.61
2022-08-08T10:29:24.925Z,50.43
2022-08-08T10:30:57.400Z,50.43
2022-08-08T10:31:46.982Z,50.73
2022-08-08T10:32:24.553Z,49.15
2022-08-08T10:33:23.539Z,50.53
2022-08-08T10:34:23.522Z,51.79
2022-08-08T10:36:07.138Z,49.22
2022-08-08T10:36:24.487Z,48.83
2022-08-08T10:37:23.489Z,48.24
2022-08-08T10:38:23.478Z,48.93
2022-08-08T10:39:31.757Z,48.53
2022-08-08T10:40:30.835Z,48.93
2022-08-08T10:41:23.458Z,49.52
2022-08-08T10:42:27.118Z,51.30
2022-08-08T10:43:23.446Z,50.59
2022-08-08T10:44:23.406Z,51.77
2022-08-08T10:45:23.397Z,50.88
2022-08-08T10:46:26.138Z,48.63
2022-08-08T10:47:23.383Z,48.83
2022-08-08T10:48:23.371Z,49.62
2022-08-08T10:49:26.800Z,49.02
2022-08-08T10:50:24.353Z,48.93
2022-08-08T10:51:24.201Z,48.73
2022-08-08T10:52:30.835Z,49.69
2022-08-08T10:53:56.842Z,47.94
2022-08-08T10:54:24.743Z,48.63
2022-08-08T10:55:39.335Z,48.71
2022-08-08T10:56:27.902Z,48.41
2022-08-08T10:57:33.317Z,49.40
2022-08-08T10:58:24.275Z,49.01
2022-08-08T10:59:23.253Z,48.11
2022-08-08T11:00:23.240Z,49.60
2022-08-08T11:01:23.330Z,48.53
2022-08-08T11:02:25.326Z,48.73
2022-08-08T11:03:52.390Z,48.46
2022-08-08T11:04:29.436Z,49.15
2022-08-08T11:05:24.207Z,49.22
2022-08-08T11:06:24.209Z,48.83
2022-08-08T11:08:31.458Z,49.49
2022-08-08T11:08:37.193Z,49.20
2022-08-08T11:09:24.167Z,48.31
2022-08-08T11:10:28.511Z,49.18
2022-08-08T11:11:32.431Z,48.98
2022-08-08T11:12:24.227Z,48.68
2022-08-08T11:13:28.733Z,47.69
2022-08-08T11:14:25.779Z,48.58
2022-08-08T11:15:23.102Z,48.39
2022-08-08T11:16:32.658Z,47.99
2022-08-08T11:18:01.379Z,47.00
2022-08-08T11:18:24.063Z,47.69
2022-08-08T11:19:23.054Z,48.98
2022-08-08T11:20:27.350Z,47.30
2022-08-08T11:21:23.027Z,48.27
2022-08-08T11:22:23.127Z,48.86
2022-08-08T11:23:23.004Z,47.67
2022-08-08T11:24:23.001Z,47.87
2022-08-08T11:25:51.779Z,46.51
2022-08-08T11:26:27.961Z,46.81
2022-08-08T11:27:23.386Z,47.87
2022-08-08T11:28:22.958Z,46.22
2022-08-08T11:29:22.950Z,48.21
2022-08-08T11:30:24.868Z,48.68
2022-08-08T11:31:22.938Z,46.91
2022-08-08T11:32:29.177Z,47.20
2022-08-08T11:33:22.899Z,47.30
2022-08-08T11:34:34.498Z,48.09
2022-08-08T11:35:43.367Z,49.55
2022-08-08T11:36:22.905Z,47.18
2022-08-08T11:38:35.601Z,46.19
2022-08-08T11:38:36.543Z,46.19
2022-08-08T11:39:22.860Z,46.29
2022-08-08T11:40:26.982Z,47.10
2022-08-08T11:41:22.993Z,47.20
2022-08-08T11:42:26.829Z,47.60
2022-08-08T11:43:23.613Z,47.69
2022-08-08T11:44:28.896Z,47.40
2022-08-08T11:45:22.836Z,47.08
2022-08-08T11:46:22.774Z,47.28
2022-08-08T11:47:22.777Z,45.79
2022-08-08T11:48:23.759Z,47.69
2022-08-08T11:49:22.951Z,47.30
2022-08-08T11:50:23.355Z,46.81
2022-08-08T11:51:39.256Z,46.98
2022-08-08T11:52:27.500Z,46.69
2022-08-08T11:53:24.319Z,45.60
2022-08-08T11:54:31.122Z,45.40
2022-08-08T11:55:25.681Z,45.40
2022-08-08T11:56:22.685Z,45.10
2022-08-08T11:57:27.414Z,46.37
2022-08-08T11:58:22.655Z,45.89
2022-08-08T11:59:57.937Z,46.39
2022-08-08T12:00:23.670Z,46.59
2022-08-08T12:01:22.639Z,47.47
2022-08-08T12:02:41.507Z,47.38
2022-08-08T12:03:23.652Z,46.00
2022-08-08T12:04:22.589Z,46.69
2022-08-08T12:05:24.804Z,46.88
2022-08-08T12:06:22.586Z,46.78
2022-08-08T12:07:22.563Z,47.87
2022-08-08T12:08:22.556Z,47.28
2022-08-08T12:09:22.545Z,45.70
2022-08-08T12:10:26.538Z,45.30
2022-08-08T12:11:26.819Z,44.91
2022-08-08T12:12:22.516Z,45.01
2022-08-08T12:13:37.818Z,46.69
2022-08-08T12:14:23.495Z,46.09
2022-08-08T12:15:22.488Z,45.50
2022-08-08T12:16:30.287Z,46.11
2022-08-08T12:17:23.458Z,45.60
2022-08-08T12:18:24.246Z,46.59
2022-08-08T12:19:37.394Z,47.06
2022-08-08T12:20:23.441Z,46.66
2022-08-08T12:21:25.746Z,46.37
2022-08-08T12:22:23.419Z,45.78
2022-08-08T12:23:30.470Z,45.67
2022-08-08T12:24:27.609Z,45.18
2022-08-08T12:25:29.722Z,44.98
2022-08-08T12:26:28.179Z,45.48
2022-08-08T12:27:22.361Z,45.28
2022-08-08T12:28:23.389Z,44.87
2022-08-08T12:29:22.345Z,45.28
2022-08-08T12:30:24.876Z,45.18
2022-08-08T12:31:22.330Z,44.91
2022-08-08T12:32:22.629Z,45.89
2022-08-08T12:33:22.357Z,46.39
2022-08-08T12:34:22.294Z,46.39
2022-08-08T12:35:22.295Z,45.89
2022-08-08T12:36:22.285Z,45.70
2022-08-08T12:37:22.271Z,45.60
2022-08-08T12:38:31.361Z,45.78
2022-08-08T12:39:22.265Z,45.48
2022-08-08T12:40:26.286Z,46.44
2022-08-08T12:41:34.951Z,46.34
2022-08-08T12:42:22.280Z,46.25
2022-08-08T12:43:22.201Z,44.76
2022-08-08T12:44:32.152Z,45.16
2022-08-08T12:45:58.580Z,45.56
2022-08-08T12:46:26.289Z,45.75
2022-08-08T12:47:43.388Z,45.93
2022-08-08T12:48:37.283Z,44.67
2022-08-08T12:49:43.653Z,45.06
2022-08-08T12:50:25.883Z,45.56
2022-08-08T12:51:22.167Z,46.03
2022-08-08T12:52:28.286Z,45.53